B21HL RCSS-VMMC
Flight info
| Callsign | B21HL |
|---|---|
| Flight time | 1h 31m |
| Altitude | 40000 |
| Route | MKG A1 ELATO J101 SMT |
| Aircraft | E190/M-SDE1E2E3FGHIJ3J4J7P2RWXY/LB1D1G1 |
Departure
| Time | 2026-05-05 06:34 |
|---|---|
| Airport | Taipei Songshan International Airport (RCSS) |
Arrival
| Time | 2026-05-05 08:05 |
|---|---|
| Airport | Macau International Airport (VMMC) |
| Time | Latitude | Longitude | Altitude | Speed | Heading |
|---|---|---|---|---|---|
| 2026-05-05 06:18 | 25.06638 | 121.54836 | 29 ft | 0 kts | 357° |
| 2026-05-05 06:27 | 25.06614 | 121.54838 | 30 ft | 2 kts | 357° |
| 2026-05-05 06:27 | 25.06599 | 121.54839 | 30 ft | 2 kts | 356° |
| 2026-05-05 06:28 | 25.06584 | 121.54839 | 30 ft | 2 kts | 357° |
| 2026-05-05 06:28 | 25.06575 | 121.54840 | 31 ft | 2 kts | 357° |
| 2026-05-05 06:28 | 25.06564 | 121.54847 | 31 ft | 2 kts | 295° |
| 2026-05-05 06:28 | 25.06562 | 121.54856 | 31 ft | 1 kts | 262° |
| 2026-05-05 06:29 | 25.06563 | 121.54862 | 31 ft | 0 kts | 268° |
| 2026-05-05 06:30 | 25.06563 | 121.54859 | 31 ft | 1 kts | 268° |
| 2026-05-05 06:30 | 25.06562 | 121.54843 | 31 ft | 4 kts | 268° |
| 2026-05-05 06:30 | 25.06561 | 121.54786 | 32 ft | 8 kts | 269° |
| 2026-05-05 06:31 | 25.06576 | 121.54723 | 32 ft | 8 kts | 295° |
| 2026-05-05 06:31 | 25.06606 | 121.54663 | 33 ft | 9 kts | 300° |
| 2026-05-05 06:31 | 25.06655 | 121.54576 | 32 ft | 16 kts | 306° |
| 2026-05-05 06:31 | 25.06733 | 121.54474 | 32 ft | 18 kts | 301° |
| 2026-05-05 06:32 | 25.06801 | 121.54351 | 32 ft | 19 kts | 301° |
| 2026-05-05 06:32 | 25.06869 | 121.54229 | 32 ft | 17 kts | 302° |
| 2026-05-05 06:32 | 25.06910 | 121.54097 | 32 ft | 18 kts | 273° |
| 2026-05-05 06:32 | 25.06945 | 121.53972 | 31 ft | 16 kts | 350° |
| 2026-05-05 06:33 | 25.07005 | 121.53980 | 31 ft | 4 kts | 79° |
| 2026-05-05 06:33 | 25.07005 | 121.53990 | 31 ft | 7 kts | 93° |
| 2026-05-05 06:33 | 25.06988 | 121.54429 | 30 ft | 105 kts | 92° |
| 2026-05-05 06:33 | 25.06955 | 121.55497 | 296 ft | 158 kts | 93° |
| 2026-05-05 06:34 | 25.06920 | 121.56731 | 1276 ft | 169 kts | 94° |
| 2026-05-05 06:34 | 25.06879 | 121.57922 | 2172 ft | 164 kts | 94° |
| 2026-05-05 06:34 | 25.06830 | 121.59277 | 2612 ft | 189 kts | 94° |
| 2026-05-05 06:34 | 25.06328 | 121.60644 | 3030 ft | 210 kts | 131° |
| 2026-05-05 06:35 | 25.05114 | 121.61645 | 3570 ft | 233 kts | 161° |
| 2026-05-05 06:35 | 25.03440 | 121.61615 | 4195 ft | 253 kts | 201° |
| 2026-05-05 06:35 | 25.02059 | 121.60393 | 4940 ft | 266 kts | 238° |
| 2026-05-05 06:35 | 25.01422 | 121.58487 | 5899 ft | 268 kts | 251° |
| 2026-05-05 06:36 | 25.00785 | 121.56593 | 6894 ft | 266 kts | 248° |
| 2026-05-05 06:36 | 25.00067 | 121.54758 | 7852 ft | 265 kts | 246° |
| 2026-05-05 06:36 | 24.99292 | 121.52910 | 8718 ft | 266 kts | 245° |
| 2026-05-05 06:36 | 24.98499 | 121.51079 | 9512 ft | 269 kts | 245° |
| 2026-05-05 06:37 | 24.97688 | 121.49236 | 10320 ft | 270 kts | 245° |
| 2026-05-05 06:37 | 24.96888 | 121.47436 | 11411 ft | 258 kts | 246° |
| 2026-05-05 06:37 | 24.96124 | 121.45721 | 12397 ft | 249 kts | 246° |
| 2026-05-05 06:37 | 24.95378 | 121.44049 | 13216 ft | 246 kts | 246° |
| 2026-05-05 06:38 | 24.94628 | 121.42369 | 13920 ft | 247 kts | 246° |
| 2026-05-05 06:38 | 24.93869 | 121.40673 | 14544 ft | 250 kts | 246° |
| 2026-05-05 06:38 | 24.93091 | 121.38934 | 15134 ft | 254 kts | 245° |
| 2026-05-05 06:38 | 24.92316 | 121.37203 | 15699 ft | 258 kts | 245° |
| 2026-05-05 06:39 | 24.91517 | 121.35429 | 16300 ft | 260 kts | 242° |
| 2026-05-05 06:39 | 24.90398 | 121.33815 | 16602 ft | 276 kts | 232° |
| 2026-05-05 06:39 | 24.89070 | 121.32170 | 16654 ft | 299 kts | 232° |
| 2026-05-05 06:39 | 24.87635 | 121.30397 | 16803 ft | 317 kts | 230° |
| 2026-05-05 06:40 | 24.86164 | 121.28584 | 17222 ft | 324 kts | 231° |
| 2026-05-05 06:40 | 24.84662 | 121.26733 | 17864 ft | 324 kts | 231° |
| 2026-05-05 06:40 | 24.83182 | 121.24908 | 18543 ft | 322 kts | 231° |
| 2026-05-05 06:40 | 24.81696 | 121.23076 | 19160 ft | 321 kts | 231° |
| 2026-05-05 06:41 | 24.80213 | 121.21250 | 19736 ft | 322 kts | 231° |
| 2026-05-05 06:41 | 24.78712 | 121.19402 | 20256 ft | 324 kts | 231° |
| 2026-05-05 06:41 | 24.77202 | 121.17542 | 20709 ft | 328 kts | 230° |
| 2026-05-05 06:41 | 24.75671 | 121.15659 | 21155 ft | 331 kts | 230° |
| 2026-05-05 06:42 | 24.74144 | 121.13781 | 21641 ft | 333 kts | 231° |
| 2026-05-05 06:42 | 24.72591 | 121.11871 | 22169 ft | 333 kts | 230° |
| 2026-05-05 06:42 | 24.71056 | 121.09985 | 22658 ft | 334 kts | 231° |
| 2026-05-05 06:42 | 24.69493 | 121.08064 | 23105 ft | 337 kts | 230° |
| 2026-05-05 06:43 | 24.67939 | 121.06158 | 23532 ft | 340 kts | 231° |
| 2026-05-05 06:43 | 24.66380 | 121.04205 | 23995 ft | 340 kts | 233° |
| 2026-05-05 06:43 | 24.64878 | 121.02202 | 24448 ft | 342 kts | 233° |
| 2026-05-05 06:43 | 24.63361 | 121.00178 | 24901 ft | 343 kts | 233° |
| 2026-05-05 06:44 | 24.61846 | 120.98159 | 25328 ft | 345 kts | 233° |
| 2026-05-05 06:44 | 24.60309 | 120.96111 | 25773 ft | 346 kts | 233° |
| 2026-05-05 06:44 | 24.58778 | 120.94074 | 26181 ft | 348 kts | 234° |
| 2026-05-05 06:44 | 24.57238 | 120.92024 | 26575 ft | 350 kts | 234° |
| 2026-05-05 06:45 | 24.55680 | 120.89951 | 26987 ft | 352 kts | 234° |
| 2026-05-05 06:45 | 24.54131 | 120.87891 | 27371 ft | 354 kts | 234° |
| 2026-05-05 06:45 | 24.52558 | 120.85802 | 27754 ft | 355 kts | 234° |
| 2026-05-05 06:45 | 24.50988 | 120.83715 | 28136 ft | 357 kts | 235° |
| 2026-05-05 06:46 | 24.49400 | 120.81606 | 28480 ft | 359 kts | 234° |
| 2026-05-05 06:46 | 24.47807 | 120.79491 | 28851 ft | 360 kts | 235° |
| 2026-05-05 06:46 | 24.46223 | 120.77389 | 29167 ft | 363 kts | 235° |
| 2026-05-05 06:46 | 24.44597 | 120.75233 | 29506 ft | 365 kts | 234° |
| 2026-05-05 06:47 | 24.42988 | 120.73099 | 29830 ft | 367 kts | 235° |
| 2026-05-05 06:47 | 24.41350 | 120.70929 | 30162 ft | 368 kts | 235° |
| 2026-05-05 06:47 | 24.39713 | 120.68761 | 30439 ft | 371 kts | 234° |
| 2026-05-05 06:47 | 24.38071 | 120.66588 | 30693 ft | 374 kts | 234° |
| 2026-05-05 06:48 | 24.36397 | 120.64372 | 30975 ft | 377 kts | 235° |
| 2026-05-05 06:48 | 24.34719 | 120.62152 | 31292 ft | 378 kts | 235° |
| 2026-05-05 06:48 | 24.33046 | 120.59941 | 31574 ft | 379 kts | 235° |
| 2026-05-05 06:48 | 24.31372 | 120.57729 | 31869 ft | 381 kts | 235° |
| 2026-05-05 06:49 | 24.29661 | 120.55468 | 32135 ft | 382 kts | 234° |
| 2026-05-05 06:49 | 24.27973 | 120.53239 | 32373 ft | 385 kts | 235° |
| 2026-05-05 06:49 | 24.26256 | 120.50974 | 32579 ft | 388 kts | 235° |
| 2026-05-05 06:49 | 24.24517 | 120.48679 | 32815 ft | 390 kts | 234° |
| 2026-05-05 06:50 | 24.22772 | 120.46380 | 33099 ft | 390 kts | 234° |
| 2026-05-05 06:50 | 24.21037 | 120.44094 | 33336 ft | 392 kts | 234° |
| 2026-05-05 06:50 | 24.19291 | 120.41795 | 33526 ft | 395 kts | 234° |
| 2026-05-05 06:50 | 24.17535 | 120.39482 | 33728 ft | 398 kts | 234° |
| 2026-05-05 06:51 | 24.15757 | 120.37142 | 33941 ft | 400 kts | 234° |
| 2026-05-05 06:51 | 24.13962 | 120.34781 | 34182 ft | 401 kts | 234° |
| 2026-05-05 06:51 | 24.12174 | 120.32430 | 34425 ft | 402 kts | 234° |
| 2026-05-05 06:51 | 24.10388 | 120.30084 | 34614 ft | 405 kts | 234° |
| 2026-05-05 06:52 | 24.08572 | 120.27698 | 34838 ft | 406 kts | 234° |
| 2026-05-05 06:52 | 24.06761 | 120.25322 | 35126 ft | 406 kts | 234° |
| 2026-05-05 06:52 | 24.04972 | 120.22974 | 35454 ft | 405 kts | 234° |
| 2026-05-05 06:52 | 24.03165 | 120.20605 | 35747 ft | 405 kts | 234° |
| 2026-05-05 06:53 | 24.01365 | 120.18246 | 36053 ft | 404 kts | 234° |
| 2026-05-05 06:53 | 23.99578 | 120.15904 | 36312 ft | 404 kts | 234° |
| 2026-05-05 06:53 | 23.97787 | 120.13557 | 36546 ft | 404 kts | 234° |
| 2026-05-05 06:53 | 23.95968 | 120.11176 | 36728 ft | 406 kts | 234° |
| 2026-05-05 06:54 | 23.94172 | 120.08827 | 36918 ft | 407 kts | 234° |
| 2026-05-05 06:54 | 23.92362 | 120.06460 | 37159 ft | 407 kts | 234° |
| 2026-05-05 06:54 | 23.90528 | 120.04063 | 37387 ft | 407 kts | 234° |
| 2026-05-05 06:54 | 23.88726 | 120.01709 | 37651 ft | 406 kts | 234° |
| 2026-05-05 06:55 | 23.86920 | 119.99351 | 37904 ft | 405 kts | 234° |
| 2026-05-05 06:55 | 23.85121 | 119.97002 | 38086 ft | 406 kts | 234° |
| 2026-05-05 06:55 | 23.83298 | 119.94624 | 38271 ft | 407 kts | 234° |
| 2026-05-05 06:55 | 23.81486 | 119.92261 | 38453 ft | 408 kts | 234° |
| 2026-05-05 06:56 | 23.79682 | 119.89909 | 38638 ft | 409 kts | 234° |
| 2026-05-05 06:56 | 23.77845 | 119.87517 | 38860 ft | 409 kts | 234° |
| 2026-05-05 06:56 | 23.76028 | 119.85152 | 39118 ft | 408 kts | 234° |
| 2026-05-05 06:56 | 23.74207 | 119.82782 | 39371 ft | 407 kts | 234° |
| 2026-05-05 06:57 | 23.72402 | 119.80433 | 39622 ft | 407 kts | 234° |
| 2026-05-05 06:57 | 23.70571 | 119.78053 | 39833 ft | 407 kts | 234° |
| 2026-05-05 06:57 | 23.68771 | 119.75714 | 39958 ft | 401 kts | 234° |
| 2026-05-05 06:58 | 23.65187 | 119.71059 | 39965 ft | 403 kts | 234° |
| 2026-05-05 06:58 | 23.61550 | 119.66339 | 39967 ft | 407 kts | 234° |
| 2026-05-05 06:59 | 23.58197 | 119.61434 | 39979 ft | 404 kts | 242° |
| 2026-05-05 06:59 | 23.55219 | 119.56269 | 39964 ft | 404 kts | 241° |
| 2026-05-05 07:00 | 23.52224 | 119.51097 | 39961 ft | 404 kts | 241° |
| 2026-05-05 07:00 | 23.49228 | 119.45932 | 39957 ft | 406 kts | 241° |
| 2026-05-05 07:01 | 23.46218 | 119.40749 | 39959 ft | 404 kts | 242° |
| 2026-05-05 07:01 | 23.43201 | 119.35557 | 39952 ft | 404 kts | 241° |
| 2026-05-05 07:02 | 23.40198 | 119.30395 | 39961 ft | 406 kts | 241° |
| 2026-05-05 07:02 | 23.37195 | 119.25240 | 39961 ft | 405 kts | 241° |
| 2026-05-05 07:03 | 23.34168 | 119.20048 | 39959 ft | 407 kts | 241° |
| 2026-05-05 07:03 | 23.31151 | 119.14877 | 39956 ft | 407 kts | 241° |
| 2026-05-05 07:04 | 23.28101 | 119.09656 | 39959 ft | 407 kts | 241° |
| 2026-05-05 07:04 | 23.25077 | 119.04485 | 39957 ft | 407 kts | 241° |
| 2026-05-05 07:05 | 23.22033 | 118.99286 | 39949 ft | 408 kts | 241° |
| 2026-05-05 07:05 | 23.18989 | 118.94089 | 39962 ft | 408 kts | 241° |
| 2026-05-05 07:06 | 23.15940 | 118.88891 | 39967 ft | 410 kts | 241° |
| 2026-05-05 07:06 | 23.12864 | 118.83652 | 39968 ft | 408 kts | 241° |
| 2026-05-05 07:07 | 23.09823 | 118.78480 | 39966 ft | 411 kts | 241° |
| 2026-05-05 07:07 | 23.06751 | 118.73258 | 39965 ft | 411 kts | 241° |
| 2026-05-05 07:08 | 23.03684 | 118.68050 | 39964 ft | 410 kts | 241° |
| 2026-05-05 07:08 | 23.00598 | 118.62817 | 39961 ft | 411 kts | 241° |
| 2026-05-05 07:09 | 22.97547 | 118.57645 | 39960 ft | 410 kts | 241° |
| 2026-05-05 07:09 | 22.94461 | 118.52430 | 39960 ft | 410 kts | 241° |
| 2026-05-05 07:10 | 22.91372 | 118.47236 | 39959 ft | 410 kts | 241° |
| 2026-05-05 07:10 | 22.88290 | 118.42059 | 39958 ft | 410 kts | 241° |
| 2026-05-05 07:11 | 22.85200 | 118.36871 | 39957 ft | 411 kts | 241° |
| 2026-05-05 07:11 | 22.82112 | 118.31693 | 39967 ft | 411 kts | 240° |
| 2026-05-05 07:12 | 22.78996 | 118.26473 | 39968 ft | 411 kts | 240° |
| 2026-05-05 07:12 | 22.75903 | 118.21297 | 39964 ft | 412 kts | 240° |
| 2026-05-05 07:13 | 22.72801 | 118.16111 | 39966 ft | 412 kts | 240° |
| 2026-05-05 07:13 | 22.69673 | 118.10886 | 39968 ft | 412 kts | 240° |
| 2026-05-05 07:14 | 22.66564 | 118.05700 | 39966 ft | 412 kts | 240° |
| 2026-05-05 07:14 | 22.63462 | 118.00529 | 39967 ft | 412 kts | 240° |
| 2026-05-05 07:15 | 22.60319 | 117.95293 | 39965 ft | 414 kts | 241° |
| 2026-05-05 07:15 | 22.57226 | 117.90083 | 39964 ft | 412 kts | 241° |
| 2026-05-05 07:16 | 22.54142 | 117.84895 | 39958 ft | 413 kts | 241° |
| 2026-05-05 07:16 | 22.51035 | 117.79672 | 39958 ft | 413 kts | 241° |
| 2026-05-05 07:17 | 22.47928 | 117.74454 | 39955 ft | 414 kts | 241° |
| 2026-05-05 07:17 | 22.44823 | 117.69245 | 39956 ft | 413 kts | 241° |
| 2026-05-05 07:18 | 22.41712 | 117.64030 | 39960 ft | 415 kts | 241° |
| 2026-05-05 07:18 | 22.38573 | 117.58775 | 39957 ft | 414 kts | 241° |
| 2026-05-05 07:19 | 22.35660 | 117.53455 | 39956 ft | 410 kts | 250° |
| 2026-05-05 07:19 | 22.34393 | 117.47527 | 39957 ft | 406 kts | 267° |
| 2026-05-05 07:20 | 22.35020 | 117.41496 | 39967 ft | 406 kts | 284° |
| 2026-05-05 07:20 | 22.36385 | 117.35595 | 39951 ft | 406 kts | 282° |
| 2026-05-05 07:21 | 22.37644 | 117.29707 | 39962 ft | 406 kts | 282° |
| 2026-05-05 07:21 | 22.38904 | 117.23753 | 39966 ft | 405 kts | 282° |
| 2026-05-05 07:22 | 22.40153 | 117.17831 | 39966 ft | 406 kts | 282° |
| 2026-05-05 07:22 | 22.41396 | 117.11932 | 39962 ft | 405 kts | 281° |
| 2026-05-05 07:23 | 22.42644 | 117.05995 | 39968 ft | 404 kts | 282° |
| 2026-05-05 07:23 | 22.43878 | 117.00111 | 39967 ft | 405 kts | 282° |
| 2026-05-05 07:24 | 22.45120 | 116.94179 | 39969 ft | 404 kts | 282° |
| 2026-05-05 07:24 | 22.46357 | 116.88264 | 39961 ft | 405 kts | 282° |
| 2026-05-05 07:25 | 22.47593 | 116.82338 | 39966 ft | 404 kts | 282° |
| 2026-05-05 07:25 | 22.48817 | 116.76457 | 39956 ft | 403 kts | 282° |
| 2026-05-05 07:26 | 22.50049 | 116.70530 | 39954 ft | 404 kts | 281° |
| 2026-05-05 07:26 | 22.50557 | 116.64565 | 39960 ft | 403 kts | 268° |
| 2026-05-05 07:27 | 22.50223 | 116.58547 | 39955 ft | 403 kts | 268° |
| 2026-05-05 07:27 | 22.49889 | 116.52499 | 39952 ft | 403 kts | 268° |
| 2026-05-05 07:28 | 22.49552 | 116.46452 | 39950 ft | 403 kts | 268° |
| 2026-05-05 07:28 | 22.49214 | 116.40421 | 39949 ft | 404 kts | 268° |
| 2026-05-05 07:29 | 22.48874 | 116.34382 | 39948 ft | 404 kts | 267° |
| 2026-05-05 07:29 | 22.48531 | 116.28353 | 39962 ft | 403 kts | 267° |
| 2026-05-05 07:30 | 22.48185 | 116.22302 | 39958 ft | 402 kts | 268° |
| 2026-05-05 07:30 | 22.47667 | 116.13298 | 39960 ft | 403 kts | 267° |
| 2026-05-05 07:31 | 22.47314 | 116.07233 | 39960 ft | 403 kts | 268° |
| 2026-05-05 07:31 | 22.46962 | 116.01200 | 39962 ft | 403 kts | 268° |
| 2026-05-05 07:32 | 22.46607 | 115.95160 | 39967 ft | 404 kts | 267° |
| 2026-05-05 07:32 | 22.46248 | 115.89116 | 39963 ft | 403 kts | 267° |
| 2026-05-05 07:33 | 22.45889 | 115.83098 | 39960 ft | 404 kts | 267° |
| 2026-05-05 07:33 | 22.45528 | 115.77069 | 39953 ft | 403 kts | 268° |
| 2026-05-05 07:34 | 22.45162 | 115.71017 | 39946 ft | 405 kts | 268° |
| 2026-05-05 07:34 | 22.44795 | 115.64982 | 39949 ft | 404 kts | 268° |
| 2026-05-05 07:35 | 22.44611 | 115.61976 | 39719 ft | 396 kts | 268° |
| 2026-05-05 07:35 | 22.44433 | 115.59059 | 39338 ft | 386 kts | 267° |
| 2026-05-05 07:35 | 22.44257 | 115.56194 | 38978 ft | 382 kts | 268° |
| 2026-05-05 07:35 | 22.44081 | 115.53333 | 38543 ft | 384 kts | 267° |
| 2026-05-05 07:36 | 22.43902 | 115.50439 | 38057 ft | 385 kts | 267° |
| 2026-05-05 07:36 | 22.43725 | 115.47575 | 37395 ft | 388 kts | 267° |
| 2026-05-05 07:36 | 22.43543 | 115.44653 | 36762 ft | 386 kts | 267° |
| 2026-05-05 07:36 | 22.43363 | 115.41770 | 36138 ft | 385 kts | 267° |
| 2026-05-05 07:37 | 22.43186 | 115.38927 | 35520 ft | 385 kts | 267° |
| 2026-05-05 07:37 | 22.43005 | 115.36046 | 34898 ft | 385 kts | 267° |
| 2026-05-05 07:37 | 22.42823 | 115.33150 | 34291 ft | 386 kts | 266° |
| 2026-05-05 07:37 | 22.42642 | 115.30281 | 33683 ft | 388 kts | 267° |
| 2026-05-05 07:38 | 22.42517 | 115.28291 | 33260 ft | 389 kts | 267° |
| 2026-05-05 07:38 | 22.42281 | 115.24572 | 32489 ft | 390 kts | 266° |
| 2026-05-05 07:38 | 22.42102 | 115.21743 | 31922 ft | 392 kts | 266° |
| 2026-05-05 07:38 | 22.41914 | 115.18795 | 31334 ft | 395 kts | 266° |
| 2026-05-05 07:39 | 22.41726 | 115.15861 | 30754 ft | 396 kts | 266° |
| 2026-05-05 07:39 | 22.41537 | 115.12909 | 30168 ft | 396 kts | 266° |
| 2026-05-05 07:39 | 22.41347 | 115.09959 | 29575 ft | 392 kts | 266° |
| 2026-05-05 07:39 | 22.41158 | 115.07032 | 28982 ft | 388 kts | 266° |
| 2026-05-05 07:40 | 22.40971 | 115.04139 | 28383 ft | 385 kts | 266° |
| 2026-05-05 07:40 | 22.40785 | 115.01268 | 27788 ft | 382 kts | 266° |
| 2026-05-05 07:40 | 22.40601 | 114.98433 | 27196 ft | 380 kts | 266° |
| 2026-05-05 07:40 | 22.40416 | 114.95596 | 26598 ft | 377 kts | 266° |
| 2026-05-05 07:41 | 22.40233 | 114.92805 | 26004 ft | 375 kts | 266° |
| 2026-05-05 07:41 | 22.40050 | 114.90012 | 25407 ft | 373 kts | 266° |
| 2026-05-05 07:41 | 22.39869 | 114.87251 | 24819 ft | 370 kts | 266° |
| 2026-05-05 07:41 | 22.39687 | 114.84493 | 24225 ft | 367 kts | 266° |
| 2026-05-05 07:42 | 22.39507 | 114.81763 | 23634 ft | 364 kts | 266° |
| 2026-05-05 07:42 | 22.39328 | 114.79068 | 23086 ft | 361 kts | 266° |
| 2026-05-05 07:42 | 22.39149 | 114.76368 | 22966 ft | 357 kts | 266° |
| 2026-05-05 07:42 | 22.38971 | 114.73684 | 22950 ft | 358 kts | 266° |
| 2026-05-05 07:43 | 22.38792 | 114.71001 | 22949 ft | 360 kts | 266° |
| 2026-05-05 07:43 | 22.38603 | 114.68311 | 22946 ft | 361 kts | 264° |
| 2026-05-05 07:43 | 22.37803 | 114.65739 | 22932 ft | 367 kts | 245° |
| 2026-05-05 07:43 | 22.36693 | 114.63293 | 22735 ft | 366 kts | 249° |
| 2026-05-05 07:44 | 22.35700 | 114.60753 | 22431 ft | 363 kts | 250° |
| 2026-05-05 07:44 | 22.34767 | 114.58224 | 22107 ft | 362 kts | 251° |
| 2026-05-05 07:44 | 22.33869 | 114.55733 | 21790 ft | 359 kts | 251° |
| 2026-05-05 07:44 | 22.32975 | 114.53234 | 21468 ft | 357 kts | 251° |
| 2026-05-05 07:45 | 22.32077 | 114.50722 | 21141 ft | 355 kts | 251° |
| 2026-05-05 07:45 | 22.31192 | 114.48239 | 20816 ft | 355 kts | 251° |
| 2026-05-05 07:45 | 22.30309 | 114.45766 | 20493 ft | 353 kts | 251° |
| 2026-05-05 07:45 | 22.29425 | 114.43291 | 20168 ft | 352 kts | 251° |
| 2026-05-05 07:46 | 22.28560 | 114.40868 | 19848 ft | 351 kts | 251° |
| 2026-05-05 07:46 | 22.27675 | 114.38394 | 19518 ft | 348 kts | 251° |
| 2026-05-05 07:46 | 22.26818 | 114.35997 | 19195 ft | 347 kts | 251° |
| 2026-05-05 07:46 | 22.25945 | 114.33558 | 18874 ft | 345 kts | 251° |
| 2026-05-05 07:47 | 22.25076 | 114.31130 | 18559 ft | 344 kts | 251° |
| 2026-05-05 07:47 | 22.24223 | 114.28748 | 18247 ft | 342 kts | 251° |
| 2026-05-05 07:47 | 22.23361 | 114.26344 | 17929 ft | 341 kts | 251° |
| 2026-05-05 07:47 | 22.22513 | 114.23977 | 17614 ft | 340 kts | 250° |
| 2026-05-05 07:48 | 22.21670 | 114.21630 | 17305 ft | 337 kts | 250° |
| 2026-05-05 07:48 | 22.20815 | 114.19247 | 16988 ft | 336 kts | 251° |
| 2026-05-05 07:48 | 22.19981 | 114.16924 | 16677 ft | 335 kts | 250° |
| 2026-05-05 07:48 | 22.19144 | 114.14596 | 16364 ft | 334 kts | 250° |
| 2026-05-05 07:49 | 22.18308 | 114.12270 | 16055 ft | 333 kts | 250° |
| 2026-05-05 07:49 | 22.17467 | 114.09932 | 15735 ft | 331 kts | 250° |
| 2026-05-05 07:49 | 22.16646 | 114.07652 | 15422 ft | 330 kts | 250° |
| 2026-05-05 07:49 | 22.15817 | 114.05347 | 15104 ft | 330 kts | 251° |
| 2026-05-05 07:50 | 22.14986 | 114.03040 | 14784 ft | 328 kts | 250° |
| 2026-05-05 07:50 | 22.14161 | 114.00752 | 14465 ft | 327 kts | 250° |
| 2026-05-05 07:50 | 22.13340 | 113.98476 | 14148 ft | 326 kts | 250° |
| 2026-05-05 07:50 | 22.12517 | 113.96194 | 13827 ft | 325 kts | 250° |
| 2026-05-05 07:51 | 22.11707 | 113.93951 | 13509 ft | 323 kts | 250° |
| 2026-05-05 07:51 | 22.10898 | 113.91711 | 13186 ft | 321 kts | 250° |
| 2026-05-05 07:51 | 22.10087 | 113.89465 | 12862 ft | 321 kts | 250° |
| 2026-05-05 07:51 | 22.09282 | 113.87239 | 12533 ft | 316 kts | 250° |
| 2026-05-05 07:52 | 22.08499 | 113.85075 | 12203 ft | 309 kts | 250° |
| 2026-05-05 07:52 | 22.07722 | 113.82929 | 11862 ft | 302 kts | 250° |
| 2026-05-05 07:52 | 22.06976 | 113.80867 | 11524 ft | 294 kts | 250° |
| 2026-05-05 07:52 | 22.06240 | 113.78836 | 11185 ft | 288 kts | 250° |
| 2026-05-05 07:53 | 22.05524 | 113.76860 | 10804 ft | 282 kts | 249° |
| 2026-05-05 07:53 | 22.04810 | 113.74890 | 10413 ft | 277 kts | 249° |
| 2026-05-05 07:53 | 22.04120 | 113.72987 | 10037 ft | 275 kts | 250° |
| 2026-05-05 07:53 | 22.03422 | 113.71062 | 9657 ft | 275 kts | 249° |
| 2026-05-05 07:54 | 22.02730 | 113.69169 | 9281 ft | 274 kts | 247° |
| 2026-05-05 07:54 | 22.01570 | 113.67554 | 8909 ft | 276 kts | 223° |
| 2026-05-05 07:54 | 22.00073 | 113.66226 | 8549 ft | 276 kts | 221° |
| 2026-05-05 07:54 | 21.98597 | 113.64932 | 8337 ft | 278 kts | 221° |
| 2026-05-05 07:55 | 21.97093 | 113.63618 | 7972 ft | 273 kts | 221° |
| 2026-05-05 07:55 | 21.95658 | 113.62364 | 7615 ft | 266 kts | 220° |
| 2026-05-05 07:55 | 21.94226 | 113.61114 | 7248 ft | 259 kts | 220° |
| 2026-05-05 07:55 | 21.92837 | 113.59904 | 6891 ft | 254 kts | 220° |
| 2026-05-05 07:56 | 21.91478 | 113.58764 | 6531 ft | 246 kts | 211° |
| 2026-05-05 07:56 | 21.89859 | 113.58411 | 6275 ft | 233 kts | 174° |
| 2026-05-05 07:56 | 21.88343 | 113.58857 | 6022 ft | 221 kts | 165° |
| 2026-05-05 07:56 | 21.86885 | 113.59372 | 5678 ft | 216 kts | 163° |
| 2026-05-05 07:57 | 21.85617 | 113.60148 | 5305 ft | 215 kts | 132° |
| 2026-05-05 07:57 | 21.85143 | 113.61628 | 4997 ft | 212 kts | 88° |
| 2026-05-05 07:57 | 21.85524 | 113.63145 | 4721 ft | 206 kts | 72° |
| 2026-05-05 07:57 | 21.85988 | 113.64580 | 4417 ft | 203 kts | 73° |
| 2026-05-05 07:58 | 21.86449 | 113.65995 | 4111 ft | 199 kts | 73° |
| 2026-05-05 07:58 | 21.86912 | 113.67403 | 3801 ft | 196 kts | 72° |
| 2026-05-05 07:58 | 21.87737 | 113.68513 | 3467 ft | 198 kts | 31° |
| 2026-05-05 07:58 | 21.89084 | 113.68747 | 3182 ft | 197 kts | 349° |
| 2026-05-05 07:59 | 21.90344 | 113.68259 | 3000 ft | 188 kts | 340° |
| 2026-05-05 07:59 | 21.91500 | 113.67786 | 3029 ft | 174 kts | 341° |
| 2026-05-05 07:59 | 21.92656 | 113.67336 | 2985 ft | 172 kts | 343° |
| 2026-05-05 07:59 | 21.93814 | 113.66897 | 2977 ft | 177 kts | 343° |
| 2026-05-05 08:00 | 21.94989 | 113.66460 | 2970 ft | 177 kts | 343° |
| 2026-05-05 08:00 | 21.96176 | 113.66022 | 2972 ft | 178 kts | 343° |
| 2026-05-05 08:00 | 21.97360 | 113.65588 | 2970 ft | 177 kts | 343° |
| 2026-05-05 08:00 | 21.98533 | 113.65158 | 2972 ft | 176 kts | 343° |
| 2026-05-05 08:01 | 21.99714 | 113.64726 | 2830 ft | 178 kts | 343° |
| 2026-05-05 08:01 | 22.00873 | 113.64302 | 2625 ft | 173 kts | 344° |
| 2026-05-05 08:01 | 22.01977 | 113.63895 | 2392 ft | 158 kts | 345° |
| 2026-05-05 08:01 | 22.02961 | 113.63535 | 2177 ft | 143 kts | 346° |
| 2026-05-05 08:02 | 22.03881 | 113.63200 | 1991 ft | 136 kts | 347° |
| 2026-05-05 08:02 | 22.04773 | 113.62875 | 1845 ft | 137 kts | 347° |
| 2026-05-05 08:02 | 22.05684 | 113.62543 | 1683 ft | 137 kts | 347° |
| 2026-05-05 08:02 | 22.06604 | 113.62206 | 1504 ft | 137 kts | 347° |
| 2026-05-05 08:03 | 22.07495 | 113.61880 | 1323 ft | 133 kts | 346° |
| 2026-05-05 08:03 | 22.08361 | 113.61562 | 1139 ft | 128 kts | 346° |
| 2026-05-05 08:03 | 22.09202 | 113.61256 | 976 ft | 126 kts | 346° |
| 2026-05-05 08:03 | 22.10042 | 113.60949 | 814 ft | 126 kts | 345° |
| 2026-05-05 08:04 | 22.10871 | 113.60646 | 652 ft | 126 kts | 345° |
| 2026-05-05 08:04 | 22.11700 | 113.60328 | 510 ft | 125 kts | 343° |
| 2026-05-05 08:04 | 22.12469 | 113.60020 | 371 ft | 124 kts | 343° |
| 2026-05-05 08:05 | 22.14646 | 113.59247 | 27 ft | 74 kts | 340° |
| 2026-05-05 08:05 | 22.15060 | 113.59096 | 27 ft | 57 kts | 342° |
| 2026-05-05 08:05 | 22.15416 | 113.58967 | 27 ft | 44 kts | 341° |
| 2026-05-05 08:06 | 22.15680 | 113.58871 | 27 ft | 41 kts | 342° |
| 2026-05-05 08:06 | 22.15965 | 113.58768 | 27 ft | 40 kts | 342° |
| 2026-05-05 08:06 | 22.16160 | 113.58690 | 27 ft | 23 kts | 334° |
| 2026-05-05 08:06 | 22.16205 | 113.58612 | 27 ft | 13 kts | 281° |
| 2026-05-05 08:07 | 22.16223 | 113.58509 | 27 ft | 15 kts | 281° |
| 2026-05-05 08:07 | 22.16246 | 113.58397 | 27 ft | 16 kts | 282° |
| 2026-05-05 08:07 | 22.16251 | 113.58266 | 27 ft | 17 kts | 251° |
| 2026-05-05 08:07 | 22.16209 | 113.58135 | 27 ft | 19 kts | 251° |
| 2026-05-05 08:08 | 22.16163 | 113.57992 | 27 ft | 20 kts | 251° |
| 2026-05-05 08:08 | 22.16115 | 113.57844 | 27 ft | 21 kts | 253° |
| 2026-05-05 08:08 | 22.16026 | 113.57743 | 27 ft | 20 kts | 196° |
| 2026-05-05 08:08 | 22.15885 | 113.57704 | 27 ft | 21 kts | 194° |
| 2026-05-05 08:09 | 22.15736 | 113.57653 | 27 ft | 22 kts | 206° |
| 2026-05-05 08:09 | 22.15608 | 113.57547 | 27 ft | 23 kts | 229° |
| 2026-05-05 08:09 | 22.15534 | 113.57420 | 27 ft | 19 kts | 242° |
| 2026-05-05 08:09 | 22.15486 | 113.57322 | 27 ft | 11 kts | 241° |
| 2026-05-05 08:10 | 22.15473 | 113.57282 | 27 ft | 3 kts | 285° |
| 2026-05-05 08:10 | 22.15495 | 113.57264 | 27 ft | 4 kts | 332° |
| 2026-05-05 08:10 | 22.15513 | 113.57237 | 27 ft | 5 kts | 264° |
| 2026-05-05 08:10 | 22.15505 | 113.57205 | 27 ft | 3 kts | 286° |
| 2026-05-05 08:11 | 22.15514 | 113.57190 | 27 ft | 2 kts | 324° |
| 2026-05-05 08:11 | 22.15523 | 113.57185 | 27 ft | 1 kts | 333° |
| 2026-05-05 08:11 | 22.15526 | 113.57183 | 27 ft | 0 kts | 333° |